This is the latest recevied weather packets stored in our database for station/object S54Z-11. If no packets are shown the sender has not sent any weather packets the latest 10 day(s).
| Time | Temp. | Humidity | Pressure | Rain* | Wind** | Luminosity | Snow |
|---|---|---|---|---|---|---|---|
| 1777513170 | 2.78° C | 54% | 1029.4 hPa | - | - | - | - |
| 1777512270 | 2.78° C | 51% | 1029.4 hPa | - | - | - | - |
| 1777511370 | 2.78° C | 52% | 1029.4 hPa | - | - | - | - |
| 1777510470 | 2.78° C | 55% | 1029.3 hPa | - | - | - | - |
| 1777509570 | 2.78° C | 57% | 1029.2 hPa | - | - | - | - |
| 1777508740 | 3.33° C | 55% | 1029.1 hPa | - | - | - | - |
| 1777508670 | 3.33° C | 55% | 1029.1 hPa | - | - | - | - |
| 1777507770 | 3.33° C | 57% | 1029.1 hPa | - | - | - | - |
| 1777506870 | 2.78° C | 66% | 1028.8 hPa | - | - | - | - |
| 1777500569 | 3.89° C | 100% | 1028 hPa | - | - | - | - |
| 1777496969 | 3.89° C | 100% | 1027.3 hPa | - | - | - | - |
| 1777496069 | 2.78° C | 100% | 1027.3 hPa | - | - | - | - |
| 1777495169 | 3.89° C | 100% | 1026.7 hPa | - | - | - | - |
| 1777490675 | 5° C | 100% | 1025.7 hPa | - | - | - | - |
| 1777489776 | 5° C | 100% | 1025.5 hPa | - | - | - | - |
| 1777486175 | 6.67° C | 100% | 1024.7 hPa | - | - | - | - |
| 1777485275 | 6.67° C | 100% | 1024.5 hPa | - | - | - | - |
| 1777484375 | 7.22° C | 100% | 1024.4 hPa | - | - | - | - |
| 1777480774 | 7.78° C | 100% | 1024.1 hPa | - | - | - | - |
| 1777470872 | 10° C | 67% | 1024.6 hPa | - | - | - | - |
| 1777469072 | 10° C | 64% | 1024.7 hPa | - | - | - | - |
| 1777468175 | 10° C | 69% | 1024.7 hPa | - | - | - | - |
| 1777465471 | 9.44° C | 61% | 1024.8 hPa | - | - | - | - |
| 1777464571 | 10° C | 59% | 1024.8 hPa | - | - | - | - |
| 1777462771 | 10.56° C | 56% | 1024.7 hPa | - | - | - | - |
* Rain since midnight (hover to see other rain measurements)
** Current wind speed in m/s (hover to see current wind gust speed)